createdAt,value
2018-12-13T00:01:33.867Z,99646.10
2018-12-13T00:04:06.908Z,99650.95
2018-12-13T00:06:40.170Z,99651.41
2018-12-13T00:09:11.236Z,99650.10
2018-12-13T00:11:42.454Z,99645.33
2018-12-13T00:14:13.271Z,99643.61
2018-12-13T00:16:43.941Z,99647.51
2018-12-13T00:19:14.542Z,99645.68
2018-12-13T00:21:45.674Z,99644.34
2018-12-13T00:24:19.693Z,99641.71
2018-12-13T00:26:53.105Z,99638.27
2018-12-13T00:29:25.419Z,99638.88
2018-12-13T00:32:00.211Z,99636.20
2018-12-13T00:34:33.869Z,99645.27
2018-12-13T00:37:05.126Z,99640.20
2018-12-13T00:39:35.914Z,99642.73
2018-12-13T00:42:06.927Z,99646.69
2018-12-13T00:44:42.998Z,99645.42
2018-12-13T00:47:16.380Z,99649.26
2018-12-13T00:49:48.691Z,99653.52
2018-12-13T00:52:20.439Z,99651.76
2018-12-13T00:54:51.240Z,99654.39
2018-12-13T00:57:24.074Z,99649.96
2018-12-13T00:59:55.488Z,99655.16
2018-12-13T01:02:26.012Z,99653.31
2018-12-13T01:04:56.783Z,99648.63
2018-12-13T01:07:27.781Z,99653.58
2018-12-13T01:09:58.346Z,99651.72
2018-12-13T01:12:31.443Z,99653.36
2018-12-13T01:15:02.359Z,99651.55
2018-12-13T01:17:33.393Z,99654.57
2018-12-13T01:20:07.390Z,99651.41
2018-12-13T01:22:40.631Z,99654.66
2018-12-13T01:25:11.464Z,99655.16
2018-12-13T01:27:42.572Z,99653.31
2018-12-13T01:33:07.346Z,99659.86
2018-12-13T01:38:24.238Z,99655.77
2018-12-13T01:40:59.175Z,99651.93
2018-12-13T01:43:31.272Z,99650.63
2018-12-13T01:46:02.600Z,99652.02
2018-12-13T01:48:35.877Z,99650.45
2018-12-13T01:51:09.700Z,99652.17
2018-12-13T01:53:40.265Z,99648.48
2018-12-13T01:56:11.255Z,99644.27
2018-12-13T01:58:44.917Z,99638.81
2018-12-13T02:01:17.464Z,99641.95
2018-12-13T02:03:48.518Z,99645.91
2018-12-13T02:06:21.494Z,99640.59
2018-12-13T02:08:57.471Z,99641.89
2018-12-13T02:11:29.219Z,99637.39
2018-12-13T02:14:00.180Z,99638.80
2018-12-13T02:16:31.142Z,99633.20
2018-12-13T02:19:03.695Z,99639.14
2018-12-13T02:21:34.774Z,99640.64
2018-12-13T02:24:06.574Z,99643.83
2018-12-13T02:26:38.507Z,99635.72
2018-12-13T02:29:09.470Z,99639.01
2018-12-13T02:31:41.157Z,99641.22
2018-12-13T02:34:14.013Z,99637.55
2018-12-13T02:36:45.195Z,99638.75
2018-12-13T02:39:20.339Z,99636.98
2018-12-13T02:41:52.631Z,99629.28
2018-12-13T02:44:23.577Z,99625.56
2018-12-13T02:46:54.267Z,99620.08
2018-12-13T02:49:24.934Z,99623.51
2018-12-13T02:51:55.482Z,99617.94
2018-12-13T02:54:26.328Z,99631.68
2018-12-13T02:57:05.595Z,99627.76
2018-12-13T02:59:39.036Z,99631.00
2018-12-13T03:02:09.687Z,99623.80
2018-12-13T03:04:43.158Z,99619.47
2018-12-13T03:07:14.433Z,99619.53
2018-12-13T03:09:45.588Z,99515.15
2018-12-13T03:12:19.073Z,99618.86
2018-12-13T03:14:51.808Z,99616.95
2018-12-13T03:17:25.962Z,99617.68
2018-12-13T03:19:58.056Z,99618.17
2018-12-13T03:22:29.935Z,99611.49
2018-12-13T03:25:02.658Z,99611.15
2018-12-13T03:27:33.763Z,99612.60
2018-12-13T03:30:05.133Z,99604.41
2018-12-13T03:32:38.049Z,99602.33
2018-12-13T03:35:10.875Z,99612.17
2018-12-13T03:37:42.220Z,99613.34
2018-12-13T03:40:12.851Z,99601.89
2018-12-13T03:42:46.677Z,99602.58
2018-12-13T03:45:19.962Z,99442.06
2018-12-13T03:47:54.139Z,99602.16
2018-12-13T03:50:41.468Z,99602.24
2018-12-13T03:53:14.246Z,99602.23
2018-12-13T03:55:44.781Z,99596.65
2018-12-13T03:58:20.931Z,99587.81
2018-12-13T04:00:57.560Z,99595.30
2018-12-13T04:03:29.460Z,99591.18
2018-12-13T04:06:11.361Z,99596.09
2018-12-13T04:08:44.929Z,99601.95
2018-12-13T04:11:17.750Z,99591.58
2018-12-13T04:13:52.058Z,99593.80
2018-12-13T04:16:23.116Z,99588.55
2018-12-13T04:18:56.094Z,99595.98
2018-12-13T04:21:27.256Z,99588.92
2018-12-13T04:24:00.231Z,99587.84
2018-12-13T04:26:31.394Z,99581.73
2018-12-13T04:29:02.162Z,99581.37
2018-12-13T04:31:35.198Z,99580.66
2018-12-13T04:34:06.215Z,99593.72
2018-12-13T04:36:36.543Z,99592.95
2018-12-13T04:39:08.661Z,99596.47
2018-12-13T04:47:55.023Z,99599.05
2018-12-13T04:50:40.107Z,99600.42
2018-12-13T04:53:12.117Z,99595.13
2018-12-13T04:56:02.926Z,99602.44
2018-12-13T04:58:34.495Z,99591.38
2018-12-13T05:01:06.028Z,99601.22
2018-12-13T05:03:38.911Z,99591.61
2018-12-13T05:06:10.249Z,99592.78
2018-12-13T05:08:43.547Z,99595.11
2018-12-13T05:11:14.652Z,99600.73
2018-12-13T05:13:45.658Z,99590.58
2018-12-13T05:16:18.514Z,99592.97
2018-12-13T05:18:49.523Z,99586.16
2018-12-13T05:21:22.445Z,99595.44
2018-12-13T05:23:53.435Z,99594.45
2018-12-13T05:26:26.540Z,99589.17
2018-12-13T05:28:58.805Z,99585.79
2018-12-13T05:31:31.324Z,99588.64
2018-12-13T05:34:02.364Z,99583.44
2018-12-13T05:36:33.738Z,99590.47
2018-12-13T05:39:08.038Z,99595.30
2018-12-13T05:41:40.949Z,99595.30
2018-12-13T05:44:13.695Z,99593.68
2018-12-13T05:46:45.904Z,99589.82
2018-12-13T05:49:17.044Z,99593.47
2018-12-13T05:51:48.823Z,99593.66
2018-12-13T05:54:20.755Z,99593.67
2018-12-13T05:56:52.005Z,99597.70
2018-12-13T05:59:22.711Z,99592.53
2018-12-13T06:01:56.454Z,99595.30
2018-12-13T06:04:29.764Z,99602.15
2018-12-13T06:07:01.369Z,99593.98
2018-12-13T06:09:33.721Z,99597.54
2018-12-13T06:12:04.542Z,99600.85
2018-12-13T06:14:35.552Z,99603.64
2018-12-13T06:17:08.996Z,99600.97
2018-12-13T06:19:45.251Z,99608.48
2018-12-13T06:22:22.035Z,99613.73
2018-12-13T06:24:54.460Z,99614.59
2018-12-13T06:27:26.581Z,99616.35
2018-12-13T06:29:59.947Z,99618.85
2018-12-13T06:32:30.742Z,99617.06
2018-12-13T06:35:02.749Z,99621.86
2018-12-13T06:37:35.155Z,99620.81
2018-12-13T06:40:06.493Z,99625.22
2018-12-13T06:42:37.811Z,99620.58
2018-12-13T06:45:12.348Z,99630.39
2018-12-13T06:48:08.967Z,99626.75
2018-12-13T06:50:59.337Z,99627.25
2018-12-13T06:53:30.681Z,99619.58
2018-12-13T06:56:01.637Z,99627.48
2018-12-13T06:58:32.547Z,99627.05
2018-12-13T07:01:03.107Z,99629.00
2018-12-13T07:03:33.825Z,99635.34
2018-12-13T07:06:05.195Z,99633.36
2018-12-13T07:08:36.059Z,99637.66
2018-12-13T07:11:07.672Z,99632.48
2018-12-13T07:13:39.985Z,99637.82
2018-12-13T07:16:12.300Z,99631.67
2018-12-13T07:18:48.831Z,99637.77
2018-12-13T07:21:21.752Z,99633.13
2018-12-13T07:23:54.480Z,99635.84
2018-12-13T07:26:25.965Z,99626.39
2018-12-13T07:28:58.737Z,99637.03
2018-12-13T07:31:32.064Z,99630.42
2018-12-13T07:34:03.126Z,99624.27
2018-12-13T07:36:36.963Z,99616.12
2018-12-13T07:39:10.494Z,99618.50
2018-12-13T07:41:41.066Z,99613.63
2018-12-13T07:44:14.524Z,99617.42
2018-12-13T07:46:45.161Z,99611.87
2018-12-13T07:49:16.129Z,99621.20
2018-12-13T07:51:47.032Z,99623.23
2018-12-13T07:54:17.647Z,99612.50
2018-12-13T07:56:50.818Z,99613.47
2018-12-13T07:59:24.908Z,99619.43
2018-12-13T08:01:58.093Z,99620.61
2018-12-13T08:04:29.208Z,99622.13
2018-12-13T08:07:02.591Z,99613.27
2018-12-13T08:09:34.388Z,99618.78
2018-12-13T08:12:05.234Z,99614.35
2018-12-13T08:14:37.938Z,99622.07
2018-12-13T08:17:09.675Z,99612.14
2018-12-13T08:19:40.522Z,99613.39
2018-12-13T08:22:13.024Z,99615.77
2018-12-13T08:24:44.494Z,99621.29
2018-12-13T08:27:15.014Z,99613.75
2018-12-13T08:29:46.079Z,99615.52
2018-12-13T08:32:19.183Z,99620.36
2018-12-13T08:34:51.216Z,99617.95
2018-12-13T08:37:23.019Z,99618.86
2018-12-13T08:39:54.118Z,99631.17
2018-12-13T08:42:26.188Z,99629.04
2018-12-13T08:44:58.407Z,99628.05
2018-12-13T08:47:29.606Z,99630.36
2018-12-13T08:50:03.558Z,99631.37
2018-12-13T08:52:36.516Z,99625.66
2018-12-13T08:55:08.255Z,99632.69
2018-12-13T08:57:41.421Z,99635.33
2018-12-13T09:00:12.732Z,99627.42
2018-12-13T09:02:57.189Z,99629.00
2018-12-13T09:05:34.958Z,99630.60
2018-12-13T09:08:09.099Z,99627.17
2018-12-13T09:10:56.915Z,99631.27
2018-12-13T09:13:28.415Z,99633.48
2018-12-13T09:16:08.203Z,99631.73
2018-12-13T09:18:40.672Z,99522.98
2018-12-13T09:21:12.454Z,99634.70
2018-12-13T09:23:44.328Z,99637.99
2018-12-13T09:26:17.218Z,99629.64
2018-12-13T09:28:49.998Z,99637.54
2018-12-13T09:31:24.908Z,99630.42
2018-12-13T09:34:01.661Z,99623.00
2018-12-13T09:36:35.140Z,99626.48
2018-12-13T09:39:11.214Z,99616.64
2018-12-13T09:41:46.080Z,99620.78
2018-12-13T09:44:23.179Z,99616.48
2018-12-13T09:46:56.488Z,99612.22
2018-12-13T09:49:29.069Z,99608.38
2018-12-13T09:52:01.422Z,99606.89
2018-12-13T09:54:34.886Z,99595.66
2018-12-13T09:57:05.771Z,99593.72
2018-12-13T09:59:36.963Z,99589.16
2018-12-13T10:02:10.668Z,99588.90
2018-12-13T10:04:43.774Z,99584.48
2018-12-13T10:07:14.824Z,99590.24
2018-12-13T10:09:45.801Z,99589.68
2018-12-13T10:12:18.978Z,99587.08
2018-12-13T10:14:51.662Z,99585.97
2018-12-13T10:17:22.720Z,99582.65
2018-12-13T10:19:55.629Z,99581.28
2018-12-13T10:22:28.654Z,99582.78
2018-12-13T10:25:01.532Z,99581.61
2018-12-13T10:27:35.205Z,99579.10
2018-12-13T10:30:09.207Z,99589.91
2018-12-13T10:32:42.165Z,99576.42
2018-12-13T10:35:13.403Z,99578.64
2018-12-13T10:38:03.626Z,99567.91
2018-12-13T10:40:43.414Z,99570.55
2018-12-13T10:43:22.615Z,99569.63
2018-12-13T10:45:53.863Z,99564.59
2018-12-13T10:48:24.679Z,99561.88
2018-12-13T10:50:58.812Z,99570.27
2018-12-13T10:53:31.987Z,99560.97
2018-12-13T10:56:05.168Z,99565.45
2018-12-13T10:58:36.009Z,99560.95
2018-12-13T11:01:11.778Z,99557.66
2018-12-13T11:03:43.958Z,99551.19
2018-12-13T11:06:16.802Z,99551.64
2018-12-13T11:08:49.153Z,99389.45
2018-12-13T11:11:21.893Z,99551.63
2018-12-13T11:13:54.802Z,99548.68
2018-12-13T11:16:26.145Z,99540.17
2018-12-13T11:18:57.227Z,99538.87
2018-12-13T11:21:28.112Z,99540.97
2018-12-13T11:24:01.796Z,99542.66
2018-12-13T11:26:41.502Z,99543.23
2018-12-13T11:29:28.312Z,99537.25
2018-12-13T11:32:00.643Z,99536.72
2018-12-13T11:34:31.598Z,99542.48
2018-12-13T11:37:02.861Z,99544.74
2018-12-13T11:39:36.277Z,99540.67
2018-12-13T11:42:09.390Z,99541.44
2018-12-13T11:44:40.835Z,99532.32
2018-12-13T11:47:19.812Z,99532.12
2018-12-13T11:49:52.899Z,99527.55
2018-12-13T11:52:24.044Z,99531.02
2018-12-13T11:54:59.166Z,99533.75
2018-12-13T11:57:31.411Z,99531.78
2018-12-13T12:00:02.161Z,99528.97
2018-12-13T12:02:35.308Z,99530.80
2018-12-13T12:05:06.512Z,99523.16
2018-12-13T12:07:39.088Z,99527.80
2018-12-13T12:10:10.441Z,99527.49
2018-12-13T12:12:41.627Z,99522.95
2018-12-13T12:15:15.420Z,99520.83
2018-12-13T12:18:02.976Z,99522.17
2018-12-13T12:20:37.960Z,99522.15
2018-12-13T12:23:28.547Z,99514.73
2018-12-13T12:26:02.913Z,99511.42
2018-12-13T12:28:37.391Z,99513.20
2018-12-13T12:31:10.069Z,99521.94
2018-12-13T12:33:42.403Z,99524.45
2018-12-13T12:36:15.799Z,99530.80
2018-12-13T12:38:46.598Z,99534.03
2018-12-13T12:41:17.111Z,99528.67
2018-12-13T12:43:49.348Z,99523.48
2018-12-13T12:46:24.630Z,99522.25
2018-12-13T12:48:58.332Z,99526.97
2018-12-13T12:51:32.448Z,99524.44
2018-12-13T12:54:05.448Z,99524.38
2018-12-13T12:56:38.307Z,99518.56
2018-12-13T12:59:09.255Z,99510.33
2018-12-13T13:01:39.917Z,99523.23
2018-12-13T13:04:10.462Z,99518.30
2018-12-13T13:06:41.093Z,99517.29
2018-12-13T13:09:11.882Z,99523.55
2018-12-13T13:11:43.067Z,99520.77
2018-12-13T13:14:22.364Z,99523.94
2018-12-13T13:16:55.507Z,99528.50
2018-12-13T13:19:27.645Z,99527.36
2018-12-13T13:21:58.714Z,99527.75
2018-12-13T13:24:31.136Z,99528.70
2018-12-13T13:27:02.047Z,99528.70
2018-12-13T13:29:32.656Z,99525.16
2018-12-13T13:32:03.818Z,99514.34
2018-12-13T13:34:34.383Z,99520.70
2018-12-13T13:37:08.651Z,99517.80
2018-12-13T13:39:44.302Z,99520.28
2018-12-13T13:42:15.651Z,99526.06
2018-12-13T13:44:46.931Z,99528.78
2018-12-13T13:47:19.427Z,99520.56
2018-12-13T13:49:52.591Z,99532.12
2018-12-13T13:52:24.351Z,99528.30
2018-12-13T13:54:55.014Z,99524.87
2018-12-13T13:57:25.852Z,99521.39
2018-12-13T13:59:56.694Z,99524.27
2018-12-13T14:02:27.267Z,99525.71
2018-12-13T14:04:58.084Z,99528.27
2018-12-13T14:07:32.066Z,99530.83
2018-12-13T14:10:05.517Z,99490.94
2018-12-13T14:12:38.878Z,99524.25
2018-12-13T14:15:11.882Z,99525.54
2018-12-13T14:17:42.981Z,99521.28
2018-12-13T14:20:13.613Z,99522.05
2018-12-13T14:22:45.730Z,99528.04
2018-12-13T14:25:31.942Z,99529.57
2018-12-13T14:28:04.595Z,99523.53
2018-12-13T14:30:49.836Z,99526.55
2018-12-13T14:33:21.544Z,99527.52
2018-12-13T14:35:54.763Z,99533.58
2018-12-13T14:38:30.570Z,99532.30
2018-12-13T14:41:01.829Z,99528.05
2018-12-13T14:43:33.092Z,99526.73
2018-12-13T14:46:04.106Z,99530.58
2018-12-13T14:48:35.118Z,99532.37
2018-12-13T14:51:21.626Z,99537.06
2018-12-13T14:53:54.910Z,99539.14
2018-12-13T14:56:26.860Z,99540.41
2018-12-13T14:58:59.217Z,99538.27
2018-12-13T15:01:38.070Z,99538.13
2018-12-13T15:04:10.534Z,99533.81
2018-12-13T15:06:44.870Z,99534.82
2018-12-13T15:09:15.919Z,99533.98
2018-12-13T15:11:46.417Z,99524.08
2018-12-13T15:14:17.254Z,99527.85
2018-12-13T15:16:47.962Z,99523.50
2018-12-13T15:19:18.910Z,99530.09
2018-12-13T15:21:49.732Z,99525.06
2018-12-13T15:24:20.704Z,99516.52
2018-12-13T15:26:58.056Z,99520.87
2018-12-13T15:29:32.192Z,99520.45
2018-12-13T15:32:04.302Z,99521.81
2018-12-13T15:34:38.838Z,99522.13
2018-12-13T15:37:09.563Z,99516.98
2018-12-13T15:39:40.403Z,99518.20
2018-12-13T15:42:11.301Z,99519.61
2018-12-13T15:44:44.109Z,99521.13
2018-12-13T15:47:16.327Z,99523.72
2018-12-13T15:49:50.122Z,99523.25
2018-12-13T15:52:21.099Z,99520.28
2018-12-13T15:54:52.799Z,99516.40
2018-12-13T15:57:25.283Z,99516.32
2018-12-13T15:59:58.788Z,99513.58
2018-12-13T16:02:31.422Z,99512.24
2018-12-13T16:05:02.598Z,99515.39
2018-12-13T16:07:35.065Z,99516.20
2018-12-13T16:10:07.848Z,99520.29
2018-12-13T16:12:40.439Z,99519.32
2018-12-13T16:15:13.362Z,99520.05
2018-12-13T16:17:44.444Z,99524.82
2018-12-13T16:20:15.631Z,99525.91
2018-12-13T16:22:46.490Z,99528.49
2018-12-13T16:25:46.852Z,99522.38
2018-12-13T16:28:19.425Z,99521.63
2018-12-13T16:30:55.112Z,99519.99
2018-12-13T16:33:31.363Z,99520.52
2018-12-13T16:36:08.290Z,99520.30
2018-12-13T16:38:40.787Z,99522.97
2018-12-13T16:41:16.518Z,99525.59
2018-12-13T16:43:49.273Z,99527.84
2018-12-13T16:46:21.371Z,99526.50
2018-12-13T16:48:52.765Z,99523.63
2018-12-13T16:51:28.469Z,99518.99
2018-12-13T16:54:00.137Z,99530.68
2018-12-13T16:56:30.793Z,99527.30
2018-12-13T16:59:01.582Z,99517.86
2018-12-13T17:01:34.520Z,99520.67
2018-12-13T17:04:06.779Z,99526.41
2018-12-13T17:06:38.427Z,99522.94
2018-12-13T17:09:11.587Z,99520.80
2018-12-13T17:11:43.624Z,99522.17
2018-12-13T17:14:16.916Z,99525.06
2018-12-13T17:16:50.223Z,99523.27
2018-12-13T17:19:23.836Z,99521.55
2018-12-13T17:21:56.494Z,99531.74
2018-12-13T17:24:31.162Z,99526.25
2018-12-13T17:27:03.593Z,99530.98
2018-12-13T17:29:34.897Z,99542.13
2018-12-13T17:32:08.100Z,99533.95
2018-12-13T17:34:38.687Z,99539.64
2018-12-13T17:37:09.321Z,99535.30
2018-12-13T17:39:39.928Z,99540.47
2018-12-13T17:42:10.557Z,99540.44
2018-12-13T17:44:41.435Z,99538.23
2018-12-13T17:47:12.458Z,99536.45
2018-12-13T17:49:43.073Z,99536.41
2018-12-13T17:52:13.935Z,99535.50
2018-12-13T17:54:44.761Z,99535.61
2018-12-13T17:57:18.072Z,99531.22
2018-12-13T17:59:53.378Z,99530.17
2018-12-13T18:02:28.642Z,99531.71
2018-12-13T18:05:01.938Z,99533.81
2018-12-13T18:07:32.634Z,99530.03
2018-12-13T18:10:04.533Z,99539.16
2018-12-13T18:12:37.602Z,99542.66
2018-12-13T18:15:10.167Z,99541.42
2018-12-13T18:17:54.288Z,99546.16
2018-12-13T18:20:49.884Z,99543.48
2018-12-13T18:23:21.578Z,99537.21
2018-12-13T18:25:52.123Z,99544.30
2018-12-13T18:28:24.046Z,99547.84
2018-12-13T18:30:57.698Z,99531.90
2018-12-13T18:33:31.129Z,99552.63
2018-12-13T18:36:03.936Z,99551.29
2018-12-13T18:38:40.567Z,99545.28
2018-12-13T18:41:11.439Z,99547.87
2018-12-13T18:43:46.135Z,99539.70
2018-12-13T18:46:18.526Z,99547.92
2018-12-13T18:48:53.647Z,99543.59
2018-12-13T18:51:25.967Z,99545.31
2018-12-13T18:53:59.446Z,99541.83
2018-12-13T18:56:30.271Z,99547.49
2018-12-13T18:59:01.204Z,99553.08
2018-12-13T19:01:32.033Z,99560.89
2018-12-13T19:04:02.899Z,99557.39
2018-12-13T19:06:33.541Z,99562.06
2018-12-13T19:09:05.726Z,99561.19
2018-12-13T19:11:46.038Z,99564.61
2018-12-13T19:14:18.392Z,99557.56
2018-12-13T19:16:54.150Z,99557.56
2018-12-13T19:19:28.738Z,99563.63
2018-12-13T19:22:07.890Z,99563.73
2018-12-13T19:24:39.311Z,99564.16
2018-12-13T19:27:13.341Z,99564.02
2018-12-13T19:29:46.483Z,99566.16
2018-12-13T19:32:20.344Z,99566.58
2018-12-13T19:35:00.162Z,99579.56
2018-12-13T19:38:00.048Z,99569.88
2018-12-13T19:40:48.190Z,99574.19
2018-12-13T19:43:15.423Z,99575.91
2018-12-13T19:45:54.768Z,99576.97
2018-12-13T19:48:29.595Z,99578.30
2018-12-13T19:51:04.629Z,99582.30
2018-12-13T19:53:39.391Z,99579.10
2018-12-13T19:56:14.173Z,99576.59
2018-12-13T19:58:46.456Z,99583.79
2018-12-13T20:01:18.395Z,99580.91
2018-12-13T20:03:52.348Z,99580.73
2018-12-13T20:06:25.490Z,99589.27
2018-12-13T20:08:59.270Z,99598.39
2018-12-13T20:11:32.831Z,99598.23
2018-12-13T20:14:12.166Z,99595.06
2018-12-13T20:16:45.498Z,99596.51
2018-12-13T20:19:17.674Z,99595.27
2018-12-13T20:21:50.206Z,99595.38
2018-12-13T20:24:22.571Z,99594.90
2018-12-13T20:26:59.036Z,99593.23
2018-12-13T20:29:34.623Z,99593.70
2018-12-13T20:32:07.300Z,99603.21
2018-12-13T20:34:41.113Z,99598.89
2018-12-13T20:37:12.666Z,99597.61
2018-12-13T20:39:43.441Z,99598.90
2018-12-13T20:42:14.159Z,99593.29
2018-12-13T20:44:46.475Z,99597.47
2018-12-13T20:47:17.556Z,99597.14
2018-12-13T20:49:50.302Z,99592.00
2018-12-13T20:52:25.154Z,99593.31
2018-12-13T20:54:56.822Z,99594.63
2018-12-13T20:57:33.618Z,99589.41
2018-12-13T21:00:11.082Z,99586.38
2018-12-13T21:03:07.208Z,99586.39
2018-12-13T21:05:51.735Z,99595.89
2018-12-13T21:08:23.835Z,99596.34
2018-12-13T21:10:55.097Z,99595.45
2018-12-13T21:13:37.206Z,99593.75
2018-12-13T21:16:08.187Z,99597.63
2018-12-13T21:18:39.466Z,99605.39
2018-12-13T21:21:12.517Z,99605.83
2018-12-13T21:23:44.775Z,99606.66
2018-12-13T21:26:17.803Z,99599.33
2018-12-13T21:28:53.410Z,99608.84
2018-12-13T21:31:27.374Z,99605.82
2018-12-13T21:33:57.987Z,99608.88
2018-12-13T21:36:34.716Z,99608.40
2018-12-13T21:39:08.071Z,99615.72
2018-12-13T21:41:41.882Z,99611.84
2018-12-13T21:44:14.843Z,99604.93
2018-12-13T21:46:45.387Z,99607.05
2018-12-13T21:49:15.918Z,99608.37
2018-12-13T21:51:47.384Z,99611.80
2018-12-13T21:54:20.364Z,99598.03
2018-12-13T21:56:58.477Z,99595.41
2018-12-13T21:59:34.169Z,99598.02
2018-12-13T22:02:05.479Z,99604.52
2018-12-13T22:04:39.040Z,99600.62
2018-12-13T22:07:11.659Z,99604.05
2018-12-13T22:09:43.459Z,99601.91
2018-12-13T22:12:15.891Z,99597.61
2018-12-13T22:14:46.813Z,99602.80
2018-12-13T22:17:19.421Z,99602.77
2018-12-13T22:19:57.627Z,99601.45
2018-12-13T22:22:31.540Z,99601.45
2018-12-13T22:25:07.437Z,99606.17
2018-12-13T22:27:40.936Z,99604.48
2018-12-13T22:30:11.978Z,99604.05
2018-12-13T22:32:43.188Z,99605.34
2018-12-13T22:35:29.678Z,99598.86
2018-12-13T22:38:02.862Z,99600.20
2018-12-13T22:40:58.630Z,99597.59
2018-12-13T22:43:29.855Z,99601.47
2018-12-13T22:46:08.451Z,99595.88
2018-12-13T22:48:42.815Z,99597.20
2018-12-13T22:51:14.860Z,99589.44
2018-12-13T22:53:46.748Z,99595.05
2018-12-13T22:56:18.249Z,99590.72
2018-12-13T22:58:51.896Z,99590.30
2018-12-13T23:01:25.608Z,99595.45
2018-12-13T23:04:04.886Z,99597.61
2018-12-13T23:06:38.277Z,99597.17
2018-12-13T23:09:09.365Z,99599.76
2018-12-13T23:11:41.918Z,99596.72
2018-12-13T23:14:16.140Z,99590.27
2018-12-13T23:16:46.939Z,99597.58
2018-12-13T23:19:20.339Z,99590.21
2018-12-13T23:21:54.053Z,99590.62
2018-12-13T23:24:26.763Z,99590.26
2018-12-13T23:26:58.358Z,99579.91
2018-12-13T23:29:32.704Z,99582.06
2018-12-13T23:32:05.238Z,99596.25
2018-12-13T23:34:38.736Z,99597.97
2018-12-13T23:37:15.644Z,99591.03
2018-12-13T23:39:46.191Z,99588.86
2018-12-13T23:42:17.762Z,99589.37
2018-12-13T23:44:48.325Z,99590.23
2018-12-13T23:47:25.765Z,99596.30
2018-12-13T23:49:58.563Z,99588.09
2018-12-13T23:52:31.124Z,99589.36
2018-12-13T23:55:05.173Z,99590.21
2018-12-13T23:57:38.135Z,99582.45
